Time;durP1;ratioP1;P1;durP2;ratioP2;P2;SDS_P1;SDS_P2;PMS_P1;PMS_P2;Temp;Humidity;BMP_temperature;BMP_pressure;BME280_temperature;BME280_humidity;BME280_pressure;Samples;Min_cycle;Max_cycle;Signal;HPM_P1;HPM_P2
2021/04/10 00:01:47;;;;;;;;;;;9.00;1.00;;;;;;5094945;28;20383;-68
2021/04/10 00:04:13;;;;;;;;;;;8.90;1.00;;;;;;5101688;28;19987;-69
2021/04/10 00:06:39;;;;;;;;;;;8.90;1.00;;;;;;5099025;28;19927;-70
2021/04/10 00:09:06;;;;;;;;;;;8.90;1.00;;;;;;5100350;28;19918;-72
2021/04/10 00:11:32;;;;;;;;;;;8.90;1.00;;;;;;5100614;28;20296;-69
2021/04/10 00:13:58;;;;;;;;;;;8.90;1.00;;;;;;5098159;28;19935;-71
2021/04/10 00:16:23;;;;;;;;;;;8.90;1.00;;;;;;5095458;28;19942;-69
2021/04/10 00:18:49;;;;;;;;;;;8.90;1.00;;;;;;5097050;28;19913;-70
2021/04/10 00:21:14;;;;;;;;;;;8.90;1.00;;;;;;5097388;28;20006;-69
2021/04/10 00:23:43;;;;;;;;;;;8.90;1.00;;;;;;5096187;28;19984;-69
2021/04/10 00:26:10;;;;;;;;;;;8.90;1.00;;;;;;5103930;28;19916;-69
2021/04/10 00:28:35;;;;;;;;;;;8.90;1.00;;;;;;5096176;28;19912;-70
2021/04/10 00:31:07;;;;;;;;;;;8.80;1.00;;;;;;5099112;28;20264;-69
2021/04/10 00:33:33;;;;;;;;;;;8.80;1.00;;;;;;5098429;28;19916;-70
2021/04/10 00:35:59;;;;;;;;;;;8.70;1.00;;;;;;5092898;28;19920;-69
2021/04/10 00:38:24;;;;;;;;;;;8.60;1.00;;;;;;5103389;28;20257;-69
2021/04/10 00:40:50;;;;;;;;;;;8.50;1.00;;;;;;5102653;28;20000;-70
2021/04/10 00:43:15;;;;;;;;;;;8.40;1.00;;;;;;5096538;28;19912;-69
2021/04/10 00:45:41;;;;;;;;;;;8.30;1.00;;;;;;5097892;28;20322;-71
2021/04/10 00:48:06;;;;;;;;;;;8.20;1.00;;;;;;5098324;28;19912;-69
2021/04/10 00:50:32;;;;;;;;;;;8.20;1.00;;;;;;5088702;28;20352;-69
2021/04/10 00:52:57;;;;;;;;;;;8.20;1.00;;;;;;5104867;28;19940;-70
2021/04/10 00:55:23;;;;;;;;;;;8.30;1.00;;;;;;5097993;28;19927;-69
2021/04/10 00:57:48;;;;;;;;;;;8.30;1.00;;;;;;5104012;28;19921;-70
2021/04/10 01:00:14;;;;;;;;;;;8.30;1.00;;;;;;5104632;28;19959;-70
2021/04/10 01:02:40;;;;;;;;;;;8.40;1.00;;;;;;5100544;28;19920;-70
2021/04/10 01:05:05;;;;;;;;;;;8.40;1.00;;;;;;5093722;28;19967;-69
2021/04/10 01:07:31;;;;;;;;;;;8.50;1.00;;;;;;5108395;28;19968;-69
2021/04/10 01:09:57;;;;;;;;;;;8.50;1.00;;;;;;5094696;28;19916;-71
2021/04/10 01:12:23;;;;;;;;;;;8.60;1.00;;;;;;5082675;28;20642;-70
2021/04/10 01:15:00;;;;;;;;;;;8.60;1.00;;;;;;5100137;28;19916;-70
2021/04/10 01:17:27;;;;;;;;;;;8.70;1.00;;;;;;5104245;28;19934;-70
2021/04/10 01:19:55;;;;;;;;;;;8.80;1.00;;;;;;5101377;28;19958;-69
2021/04/10 01:22:30;;;;;;;;;;;8.80;1.00;;;;;;5101628;28;20056;-69
2021/04/10 01:25:04;;;;;;;;;;;8.90;1.00;;;;;;5098170;28;19920;-69
2021/04/10 01:27:40;;;;;;;;;;;8.80;1.00;;;;;;5101261;28;19916;-70
2021/04/10 01:30:10;;;;;;;;;;;8.80;1.00;;;;;;5097242;28;19942;-70
2021/04/10 01:32:37;;;;;;;;;;;8.80;1.00;;;;;;5101487;28;20252;-69
2021/04/10 01:35:06;;;;;;;;;;;8.80;1.00;;;;;;5104688;28;19916;-70
2021/04/10 01:37:33;;;;;;;;;;;8.80;1.00;;;;;;5100698;28;20378;-70
2021/04/10 01:40:00;;;;;;;;;;;8.80;1.00;;;;;;5099837;28;19915;-71
2021/04/10 01:42:26;;;;;;;;;;;8.80;1.00;;;;;;5096084;28;19922;-69
2021/04/10 01:44:53;;;;;;;;;;;8.80;1.00;;;;;;5106218;28;20075;-69
2021/04/10 01:47:19;;;;;;;;;;;8.70;1.00;;;;;;5100618;28;20011;-70
2021/04/10 01:49:45;;;;;;;;;;;8.70;1.00;;;;;;5105038;28;20003;-70
2021/04/10 01:52:12;;;;;;;;;;;8.60;1.00;;;;;;5095463;28;20010;-69
2021/04/10 01:54:38;;;;;;;;;;;8.60;1.00;;;;;;5109093;28;20429;-70
2021/04/10 01:57:04;;;;;;;;;;;8.50;1.00;;;;;;5092551;28;19916;-69
2021/04/10 01:59:30;;;;;;;;;;;8.60;1.00;;;;;;5096937;28;19931;-70
2021/04/10 02:01:56;;;;;;;;;;;8.60;1.00;;;;;;5094093;28;19912;-69
2021/04/10 02:04:21;;;;;;;;;;;8.60;1.00;;;;;;5106600;28;19912;-69
2021/04/10 02:06:48;;;;;;;;;;;8.50;1.00;;;;;;5099249;28;19965;-70
2021/04/10 02:09:13;;;;;;;;;;;8.50;1.00;;;;;;5098738;28;19926;-69
2021/04/10 02:11:42;;;;;;;;;;;8.40;1.00;;;;;;5099928;28;19912;-69
2021/04/10 02:14:10;;;;;;;;;;;8.40;1.00;;;;;;5098931;28;20035;-70
2021/04/10 02:16:35;;;;;;;;;;;8.40;1.00;;;;;;5109805;28;19993;-69
2021/04/10 02:19:01;;;;;;;;;;;8.40;1.00;;;;;;5110211;28;20402;-69
2021/04/10 02:21:27;;;;;;;;;;;8.40;1.00;;;;;;5099182;28;19912;-69
2021/04/10 02:23:53;;;;;;;;;;;8.40;1.00;;;;;;5091526;28;19912;-70
2021/04/10 02:26:19;;;;;;;;;;;8.30;1.00;;;;;;5105131;28;19912;-69
2021/04/10 02:28:44;;;;;;;;;;;8.40;1.00;;;;;;5100379;28;19923;-70
2021/04/10 02:31:12;;;;;;;;;;;8.30;1.00;;;;;;5091159;28;20472;-70
2021/04/10 02:33:39;;;;;;;;;;;8.30;1.00;;;;;;5096349;28;19912;-70
2021/04/10 02:36:06;;;;;;;;;;;8.30;1.00;;;;;;5104396;28;19916;-70
2021/04/10 02:38:32;;;;;;;;;;;8.30;1.00;;;;;;5095426;28;20287;-70
2021/04/10 02:41:07;;;;;;;;;;;8.20;1.00;;;;;;5098193;28;19919;-69
2021/04/10 02:43:36;;;;;;;;;;;8.20;1.00;;;;;;5102661;28;19912;-70
2021/04/10 02:46:02;;;;;;;;;;;8.30;1.00;;;;;;5104421;28;20362;-69
2021/04/10 02:48:33;;;;;;;;;;;8.20;1.00;;;;;;5095892;28;19912;-70
2021/04/10 02:50:59;;;;;;;;;;;8.10;1.00;;;;;;5100688;28;20296;-70
2021/04/10 02:53:25;;;;;;;;;;;8.10;1.00;;;;;;5107250;28;19916;-69
2021/04/10 02:55:55;;;;;;;;;;;8.00;1.00;;;;;;5093089;28;19916;-70
2021/04/10 02:58:21;;;;;;;;;;;8.00;1.00;;;;;;5100702;28;19957;-69
2021/04/10 03:00:47;;;;;;;;;;;8.00;1.00;;;;;;5101914;28;20276;-70
2021/04/10 03:03:14;;;;;;;;;;;8.00;1.00;;;;;;5094911;28;19920;-70
2021/04/10 03:05:40;;;;;;;;;;;7.90;1.00;;;;;;5098975;28;20502;-70
2021/04/10 03:08:07;;;;;;;;;;;7.90;1.00;;;;;;5098042;28;19947;-71
2021/04/10 03:10:33;;;;;;;;;;;7.80;1.00;;;;;;5101307;28;19908;-69
2021/04/10 03:13:00;;;;;;;;;;;7.80;1.00;;;;;;5106498;28;19923;-69
2021/04/10 03:15:25;;;;;;;;;;;7.80;1.00;;;;;;5102481;28;19912;-70
2021/04/10 03:17:51;;;;;;;;;;;7.70;1.00;;;;;;5091217;28;19908;-69
2021/04/10 03:20:17;;;;;;;;;;;7.60;1.00;;;;;;5100834;28;19912;-69
2021/04/10 03:22:43;;;;;;;;;;;7.50;1.00;;;;;;5101670;28;20343;-70
2021/04/10 03:25:10;;;;;;;;;;;7.40;1.00;;;;;;5105680;28;19920;-69
2021/04/10 03:27:35;;;;;;;;;;;7.40;1.00;;;;;;5098722;28;19911;-70
2021/04/10 03:30:01;;;;;;;;;;;7.40;2.70;;;;;;5088630;28;20337;-69
2021/04/10 03:32:27;;;;;;;;;;;7.40;3.00;;;;;;5101550;28;19965;-69
2021/04/10 03:34:53;;;;;;;;;;;7.40;3.90;;;;;;5092332;28;19915;-70
2021/04/10 03:37:19;;;;;;;;;;;7.40;5.00;;;;;;5090974;28;20233;-69
2021/04/10 03:39:45;;;;;;;;;;;7.30;5.60;;;;;;5099642;28;19931;-69
2021/04/10 03:42:11;;;;;;;;;;;7.30;7.00;;;;;;5100912;28;19911;-70
2021/04/10 03:44:36;;;;;;;;;;;7.30;7.90;;;;;;5095700;28;20245;-70
2021/04/10 03:47:02;;;;;;;;;;;7.20;8.30;;;;;;5090101;28;19908;-70
2021/04/10 03:49:27;;;;;;;;;;;7.20;8.70;;;;;;5097465;28;19959;-70
2021/04/10 03:51:53;;;;;;;;;;;7.20;9.60;;;;;;5097723;28;19916;-70
2021/04/10 03:54:18;;;;;;;;;;;7.30;9.80;;;;;;5107886;28;19916;-69
2021/04/10 03:56:43;;;;;;;;;;;7.40;10.70;;;;;;5092836;28;19995;-69
2021/04/10 03:59:09;;;;;;;;;;;7.40;10.30;;;;;;5096057;28;19920;-70
2021/04/10 04:01:34;;;;;;;;;;;7.40;10.90;;;;;;5089936;28;20337;-69
2021/04/10 04:04:00;;;;;;;;;;;7.30;11.20;;;;;;5107231;28;20259;-68
2021/04/10 04:06:25;;;;;;;;;;;7.30;11.10;;;;;;5095911;28;20026;-70
2021/04/10 04:08:51;;;;;;;;;;;7.30;12.10;;;;;;5104598;28;20295;-69
2021/04/10 04:11:16;;;;;;;;;;;7.30;12.00;;;;;;5099402;28;19912;-69
2021/04/10 04:13:42;;;;;;;;;;;7.20;12.80;;;;;;5103449;28;20495;-70
2021/04/10 04:16:07;;;;;;;;;;;7.10;13.70;;;;;;5097597;28;19972;-70
2021/04/10 04:18:33;;;;;;;;;;;7.10;14.40;;;;;;5099671;28;19923;-69
2021/04/10 04:20:58;;;;;;;;;;;7.10;15.10;;;;;;5092697;28;19916;-70
2021/04/10 04:23:24;;;;;;;;;;;7.10;16.40;;;;;;5102044;28;19918;-70
2021/04/10 04:25:49;;;;;;;;;;;7.10;16.90;;;;;;5106412;28;19920;-69
2021/04/10 04:28:17;;;;;;;;;;;7.10;17.30;;;;;;5096939;28;19927;-69
2021/04/10 04:30:42;;;;;;;;;;;7.10;18.60;;;;;;5098782;28;19919;-70
2021/04/10 04:33:08;;;;;;;;;;;7.10;19.90;;;;;;5096865;28;20503;-69
2021/04/10 04:35:33;;;;;;;;;;;7.10;20.30;;;;;;5104892;28;19920;-69
2021/04/10 04:37:59;;;;;;;;;;;7.20;31.30;;;;;;5104132;28;19912;-70
2021/04/10 04:40:24;;;;;;;;;;;7.20;22.10;;;;;;5095974;28;19969;-69
2021/04/10 04:42:50;;;;;;;;;;;7.20;22.90;;;;;;5094649;28;19974;-69
2021/04/10 04:45:15;;;;;;;;;;;7.30;23.90;;;;;;5111616;27;19915;-69
2021/04/10 04:47:41;;;;;;;;;;;7.30;24.10;;;;;;5097213;28;19946;-69
2021/04/10 04:50:06;;;;;;;;;;;7.40;24.30;;;;;;5096711;28;20015;-69
2021/04/10 04:52:32;;;;;;;;;;;7.40;24.80;;;;;;5104244;28;20409;-69
2021/04/10 04:54:57;;;;;;;;;;;7.50;24.30;;;;;;5106896;27;19919;-69
2021/04/10 04:57:23;;;;;;;;;;;7.50;25.80;;;;;;5094301;28;20253;-70
2021/04/10 04:59:48;;;;;;;;;;;7.40;24.80;;;;;;5097563;28;19908;-69
2021/04/10 05:02:14;;;;;;;;;;;7.50;25.60;;;;;;5103982;28;19912;-69
2021/04/10 05:04:41;;;;;;;;;;;7.60;25.80;;;;;;5106700;28;19918;-68
2021/04/10 05:07:06;;;;;;;;;;;7.60;26.30;;;;;;5111554;28;19919;-70
2021/04/10 05:09:32;;;;;;;;;;;7.70;26.80;;;;;;5106606;28;19982;-69
2021/04/10 05:11:57;;;;;;;;;;;7.70;26.90;;;;;;5101923;28;19922;-69
2021/04/10 05:14:23;;;;;;;;;;;7.70;27.00;;;;;;5100100;28;19962;-69
2021/04/10 05:16:48;;;;;;;;;;;7.70;27.20;;;;;;5106064;28;19918;-71
2021/04/10 05:19:14;;;;;;;;;;;7.60;27.20;;;;;;5104161;28;20520;-69
2021/04/10 05:21:39;;;;;;;;;;;7.60;27.50;;;;;;5107843;28;19976;-70
2021/04/10 05:24:05;;;;;;;;;;;7.60;28.20;;;;;;5108043;28;19916;-70
2021/04/10 05:26:30;;;;;;;;;;;7.60;28.90;;;;;;5104677;28;19924;-70
2021/04/10 05:28:56;;;;;;;;;;;7.60;29.10;;;;;;5101084;28;19916;-70
2021/04/10 05:31:22;;;;;;;;;;;7.60;29.90;;;;;;5097623;28;19916;-69
2021/04/10 05:33:47;;;;;;;;;;;7.70;32.00;;;;;;5095530;28;19916;-70
2021/04/10 05:36:13;;;;;;;;;;;7.80;32.70;;;;;;5095643;28;19976;-71
2021/04/10 05:38:38;;;;;;;;;;;8.00;34.40;;;;;;5103218;28;19908;-70
2021/04/10 05:41:05;;;;;;;;;;;8.20;34.60;;;;;;5113219;28;20685;-69
2021/04/10 05:43:30;;;;;;;;;;;8.30;33.90;;;;;;5108828;28;19954;-70
2021/04/10 05:45:56;;;;;;;;;;;8.40;35.00;;;;;;5111521;28;19924;-70
2021/04/10 05:48:21;;;;;;;;;;;8.60;36.10;;;;;;5110567;28;19908;-70
2021/04/10 05:50:47;;;;;;;;;;;8.70;36.40;;;;;;5112068;28;19908;-70
2021/04/10 05:53:13;;;;;;;;;;;8.80;36.40;;;;;;5112452;28;19924;-70
2021/04/10 05:55:38;;;;;;;;;;;9.00;36.90;;;;;;5113053;28;19927;-69
2021/04/10 05:58:04;;;;;;;;;;;9.20;36.70;;;;;;5111458;28;19908;-70
2021/04/10 06:00:29;;;;;;;;;;;9.40;36.80;;;;;;5112600;28;19908;-70
2021/04/10 06:02:55;;;;;;;;;;;9.60;35.40;;;;;;5094221;28;19907;-69
2021/04/10 06:05:21;;;;;;;;;;;9.70;34.80;;;;;;5112146;28;20417;-69
2021/04/10 06:07:47;;;;;;;;;;;9.70;34.20;;;;;;5112660;28;20284;-70
2021/04/10 06:10:13;;;;;;;;;;;9.90;33.80;;;;;;5111243;28;19923;-70
2021/04/10 06:12:39;;;;;;;;;;;10.00;32.70;;;;;;5111782;28;20383;-69
2021/04/10 06:15:05;;;;;;;;;;;10.10;32.50;;;;;;5111129;28;19912;-70
2021/04/10 06:17:31;;;;;;;;;;;10.30;32.70;;;;;;5112046;28;20492;-70
2021/04/10 06:19:56;;;;;;;;;;;10.30;31.80;;;;;;5111699;28;19911;-70
2021/04/10 06:22:22;;;;;;;;;;;10.30;31.30;;;;;;5112637;28;19908;-70
2021/04/10 06:24:47;;;;;;;;;;;10.40;31.30;;;;;;5112094;28;20006;-69
2021/04/10 06:27:13;;;;;;;;;;;10.40;32.00;;;;;;5112031;28;20322;-69
2021/04/10 06:29:38;;;;;;;;;;;10.40;31.60;;;;;;5110326;28;20408;-70
2021/04/10 06:32:04;;;;;;;;;;;10.50;31.90;;;;;;5112795;28;19964;-70
2021/04/10 06:34:29;;;;;;;;;;;10.70;33.10;;;;;;5111847;28;19916;-71
2021/04/10 06:36:55;;;;;;;;;;;11.10;34.30;;;;;;5112128;28;19912;-70
2021/04/10 06:39:21;;;;;;;;;;;11.40;35.10;;;;;;5110601;28;19908;-70
2021/04/10 06:41:47;;;;;;;;;;;11.50;34.30;;;;;;5111971;28;19907;-70
2021/04/10 06:44:12;;;;;;;;;;;11.60;34.60;;;;;;5092040;28;20228;-70
2021/04/10 06:46:38;;;;;;;;;;;11.70;34.80;;;;;;5112143;28;20310;-70
2021/04/10 06:49:05;;;;;;;;;;;11.80;34.30;;;;;;5108853;28;19911;-68
2021/04/10 06:51:31;;;;;;;;;;;11.90;34.10;;;;;;5091884;28;20053;-69
2021/04/10 06:53:57;;;;;;;;;;;11.90;34.80;;;;;;5090496;28;20327;-69
2021/04/10 06:56:26;;;;;;;;;;;12.00;34.50;;;;;;5091313;28;19908;-70
2021/04/10 06:59:14;;;;;;;;;;;12.00;34.70;;;;;;5088805;28;19915;-70
2021/04/10 07:01:40;;;;;;;;;;;12.10;34.50;;;;;;5091479;28;19962;-70
2021/04/10 07:04:05;;;;;;;;;;;12.30;34.90;;;;;;5090932;28;19960;-71
2021/04/10 07:06:31;;;;;;;;;;;12.30;34.70;;;;;;5091282;28;19915;-70
2021/04/10 07:08:57;;;;;;;;;;;12.20;34.00;;;;;;5089680;28;20049;-70
2021/04/10 07:11:22;;;;;;;;;;;12.10;33.20;;;;;;5090592;28;20057;-70
2021/04/10 07:13:48;;;;;;;;;;;11.90;33.00;;;;;;5089123;28;19973;-70
2021/04/10 07:16:13;;;;;;;;;;;11.80;33.20;;;;;;5072757;28;19912;-70
2021/04/10 07:18:39;;;;;;;;;;;11.70;33.30;;;;;;5090791;28;20379;-71
2021/04/10 07:21:11;;;;;;;;;;;11.60;33.30;;;;;;5090482;28;20003;-71
2021/04/10 07:23:44;;;;;;;;;;;11.60;34.30;;;;;;5090519;28;19957;-72
2021/04/10 07:26:10;;;;;;;;;;;11.50;35.00;;;;;;5090960;28;20007;-71
2021/04/10 07:28:35;;;;;;;;;;;11.50;37.40;;;;;;5089038;28;20400;-72
2021/04/10 07:31:02;;;;;;;;;;;11.60;37.00;;;;;;5089878;28;19950;-70
2021/04/10 07:33:29;;;;;;;;;;;11.70;38.00;;;;;;5090470;28;19965;-68
2021/04/10 07:35:55;;;;;;;;;;;11.80;39.30;;;;;;5090910;28;19914;-72
2021/04/10 07:38:24;;;;;;;;;;;11.90;40.10;;;;;;5090166;28;19912;-70
2021/04/10 07:40:49;;;;;;;;;;;12.10;41.70;;;;;;5089607;28;19970;-72
2021/04/10 07:43:21;;;;;;;;;;;12.20;41.50;;;;;;5087966;28;19912;-69
2021/04/10 07:45:46;;;;;;;;;;;12.30;42.20;;;;;;5090561;28;19912;-71
2021/04/10 07:48:17;;;;;;;;;;;12.40;42.30;;;;;;5090297;28;19912;-71
2021/04/10 07:50:42;;;;;;;;;;;12.50;42.80;;;;;;5090424;28;19915;-71
2021/04/10 07:53:24;;;;;;;;;;;12.60;42.40;;;;;;5089655;28;19908;-70
2021/04/10 07:55:50;;;;;;;;;;;12.60;42.20;;;;;;5091201;28;19908;-70
2021/04/10 07:58:32;;;;;;;;;;;12.60;41.60;;;;;;5088092;28;19915;-70
2021/04/10 08:01:00;;;;;;;;;;;12.70;42.80;;;;;;5089769;28;19915;-71
2021/04/10 08:03:32;;;;;;;;;;;12.70;54.40;;;;;;5089683;28;19908;-70
2021/04/10 08:06:06;;;;;;;;;;;12.70;42.10;;;;;;5089668;28;20007;-72
2021/04/10 08:08:33;;;;;;;;;;;12.80;43.30;;;;;;5090015;28;19915;-70
2021/04/10 08:10:58;;;;;;;;;;;12.80;42.30;;;;;;5089852;28;19912;-70
2021/04/10 08:13:24;;;;;;;;;;;12.80;42.40;;;;;;5088292;28;20003;-71
2021/04/10 08:16:10;;;;;;;;;;;12.80;42.30;;;;;;5090273;28;19908;-70
2021/04/10 08:18:36;;;;;;;;;;;12.70;55.00;;;;;;5088926;28;20361;-71
2021/04/10 08:21:01;;;;;;;;;;;12.60;41.70;;;;;;5089262;28;19914;-71
2021/04/10 08:23:27;;;;;;;;;;;12.60;41.90;;;;;;5089341;28;19958;-71
2021/04/10 08:25:53;;;;;;;;;;;12.60;42.20;;;;;;5090205;28;19915;-71
2021/04/10 08:28:18;;;;;;;;;;;12.50;54.30;;;;;;5087737;28;20018;-71
2021/04/10 08:30:44;;;;;;;;;;;12.40;41.40;;;;;;5089613;28;19909;-71
2021/04/10 08:33:10;;;;;;;;;;;12.30;41.40;;;;;;5089081;28;20042;-71
2021/04/10 08:35:37;;;;;;;;;;;12.20;41.70;;;;;;5089828;28;19961;-71
2021/04/10 08:38:02;;;;;;;;;;;12.10;42.90;;;;;;5089095;28;20041;-71
2021/04/10 08:40:29;;;;;;;;;;;12.10;43.80;;;;;;5089425;28;19912;-71
2021/04/10 08:42:55;;;;;;;;;;;12.10;44.60;;;;;;5088229;28;19908;-71
2021/04/10 08:45:27;;;;;;;;;;;12.10;45.30;;;;;;5088822;28;20284;-71
2021/04/10 08:47:53;;;;;;;;;;;12.10;46.30;;;;;;5089249;28;20333;-71
2021/04/10 08:50:18;;;;;;;;;;;12.10;46.60;;;;;;5089018;28;19951;-71
2021/04/10 08:52:44;;;;;;;;;;;12.10;47.00;;;;;;5089450;28;19946;-70
2021/04/10 08:55:11;;;;;;;;;;;12.20;47.50;;;;;;5089347;28;19916;-70
2021/04/10 08:57:37;;;;;;;;;;;12.20;48.60;;;;;;5089302;28;19912;-70
2021/04/10 09:00:15;;;;;;;;;;;12.30;49.60;;;;;;5087594;28;20291;-70
2021/04/10 09:02:48;;;;;;;;;;;12.30;48.90;;;;;;5089985;28;20380;-71
2021/04/10 09:05:14;;;;;;;;;;;12.30;49.20;;;;;;5089624;28;19915;-70
2021/04/10 09:07:49;;;;;;;;;;;12.40;51.00;;;;;;5088833;28;20431;-71
2021/04/10 09:10:23;;;;;;;;;;;12.50;50.20;;;;;;5089419;28;19912;-70
2021/04/10 09:12:48;;;;;;;;;;;12.60;50.70;;;;;;5088116;28;19973;-70
2021/04/10 09:15:14;;;;;;;;;;;12.70;50.60;;;;;;5070744;28;19955;-70
2021/04/10 09:17:58;;;;;;;;;;;12.70;51.60;;;;;;5091433;28;19908;-69
2021/04/10 09:20:45;;;;;;;;;;;12.90;52.00;;;;;;5092469;28;19915;-71
2021/04/10 09:23:26;;;;;;;;;;;13.10;53.20;;;;;;5092472;28;19912;-70
2021/04/10 09:26:07;;;;;;;;;;;13.30;52.60;;;;;;5093212;28;19913;-71
2021/04/10 09:28:34;;;;;;;;;;;13.50;53.20;;;;;;5090935;28;19912;-69
2021/04/10 09:31:00;;;;;;;;;;;13.70;52.10;;;;;;5092063;28;19908;-70
2021/04/10 09:33:28;;;;;;;;;;;13.90;51.70;;;;;;5092022;28;20003;-69
2021/04/10 09:35:54;;;;;;;;;;;14.00;51.70;;;;;;5092627;28;20346;-71
2021/04/10 09:38:38;;;;;;;;;;;14.20;52.00;;;;;;5092418;28;19912;-71
2021/04/10 09:41:03;;;;;;;;;;;14.40;51.30;;;;;;5091974;28;19939;-71
2021/04/10 09:43:29;;;;;;;;;;;14.50;50.80;;;;;;5090766;28;19912;-70
2021/04/10 09:45:55;;;;;;;;;;;14.50;50.50;;;;;;5092841;28;19960;-71
2021/04/10 09:48:21;;;;;;;;;;;14.60;49.90;;;;;;5092597;28;19908;-71
2021/04/10 09:50:50;;;;;;;;;;;14.70;50.00;;;;;;5091800;28;19908;-71
2021/04/10 09:53:22;;;;;;;;;;;14.70;49.50;;;;;;5091694;28;19909;-70
2021/04/10 09:55:49;;;;;;;;;;;14.90;49.60;;;;;;5092974;28;20019;-70
2021/04/10 09:58:15;;;;;;;;;;;15.00;49.40;;;;;;5090521;28;19908;-70
2021/04/10 10:00:42;;;;;;;;;;;15.10;49.00;;;;;;5091398;28;19916;-70
2021/04/10 10:03:08;;;;;;;;;;;15.20;49.30;;;;;;5091458;28;20007;-69
2021/04/10 10:05:35;;;;;;;;;;;15.30;48.80;;;;;;5073634;28;19916;-71
2021/04/10 10:08:02;;;;;;;;;;;15.50;48.90;;;;;;5092012;28;19961;-70
2021/04/10 10:10:31;;;;;;;;;;;15.70;48.80;;;;;;5073389;28;19931;-71
2021/04/10 10:13:03;;;;;;;;;;;15.70;46.20;;;;;;5090677;28;19952;-70
2021/04/10 10:15:29;;;;;;;;;;;15.80;45.90;;;;;;5092193;28;19972;-69
2021/04/10 10:17:55;;;;;;;;;;;16.00;46.20;;;;;;5091720;28;20007;-70
2021/04/10 10:20:20;;;;;;;;;;;16.20;45.70;;;;;;5091198;28;19970;-71
2021/04/10 10:22:46;;;;;;;;;;;16.40;44.40;;;;;;5091735;28;19908;-71
2021/04/10 10:25:11;;;;;;;;;;;16.60;43.90;;;;;;5091532;28;19966;-70
2021/04/10 10:27:38;;;;;;;;;;;16.90;43.90;;;;;;5091511;28;19912;-71
2021/04/10 10:30:20;;;;;;;;;;;17.10;43.60;;;;;;5089095;28;19912;-71
2021/04/10 10:32:49;;;;;;;;;;;17.40;42.50;;;;;;5091939;28;19911;-71
2021/04/10 10:35:16;;;;;;;;;;;17.60;40.30;;;;;;5091215;28;19931;-69
2021/04/10 10:37:45;;;;;;;;;;;17.70;39.60;;;;;;5091725;28;19957;-70
2021/04/10 10:40:18;;;;;;;;;;;18.00;39.50;;;;;;5091037;28;19931;-71
2021/04/10 10:42:44;;;;;;;;;;;18.20;38.50;;;;;;5090598;28;19935;-71
2021/04/10 10:45:10;;;;;;;;;;;18.40;36.00;;;;;;5090414;28;19912;-70
2021/04/10 10:47:35;;;;;;;;;;;18.50;34.90;;;;;;5091717;28;19923;-71
2021/04/10 10:50:01;;;;;;;;;;;18.70;34.60;;;;;;5100868;28;20272;-72
2021/04/10 10:52:26;;;;;;;;;;;19.00;33.40;;;;;;5111871;28;19955;-70
2021/04/10 10:54:58;;;;;;;;;;;19.40;33.20;;;;;;5111131;28;19989;-70
2021/04/10 10:57:23;;;;;;;;;;;19.90;33.50;;;;;;5110955;28;20571;-71
2021/04/10 10:59:49;;;;;;;;;;;20.30;31.40;;;;;;5109343;28;19908;-70
2021/04/10 11:02:18;;;;;;;;;;;20.50;30.00;;;;;;5111663;28;19934;-71
2021/04/10 11:04:44;;;;;;;;;;;20.50;28.20;;;;;;5110952;28;19908;-70
2021/04/10 11:07:11;;;;;;;;;;;20.70;27.20;;;;;;5111650;28;19973;-71
2021/04/10 11:09:38;;;;;;;;;;;21.10;26.60;;;;;;5110947;28;19912;-71
2021/04/10 11:12:10;;;;;;;;;;;21.40;26.00;;;;;;5111188;28;19915;-70
2021/04/10 11:14:41;;;;;;;;;;;21.70;24.90;;;;;;5109680;28;19930;-70
2021/04/10 11:17:07;;;;;;;;;;;21.70;22.90;;;;;;5111446;28;19912;-70
2021/04/10 11:19:35;;;;;;;;;;;21.60;20.80;;;;;;5110003;28;19923;-71
2021/04/10 11:22:01;;;;;;;;;;;21.50;19.00;;;;;;5111027;28;19964;-70
2021/04/10 11:24:37;;;;;;;;;;;21.70;18.20;;;;;;5110842;28;20376;-70
2021/04/10 11:27:13;;;;;;;;;;;22.10;18.40;;;;;;5110833;28;19926;-72
2021/04/10 11:29:47;;;;;;;;;;;22.60;18.40;;;;;;5108514;28;19911;-71
2021/04/10 11:32:13;;;;;;;;;;;22.80;17.70;;;;;;5111673;28;19912;-72
2021/04/10 11:34:39;;;;;;;;;;;22.60;14.10;;;;;;5110900;28;20375;-71
2021/04/10 11:37:06;;;;;;;;;;;22.30;11.30;;;;;;5112150;28;19912;-71
2021/04/10 11:39:46;;;;;;;;;;;22.30;9.90;;;;;;5111248;28;19954;-72
2021/04/10 11:42:19;;;;;;;;;;;22.00;6.80;;;;;;5111740;28;19965;-71
2021/04/10 11:44:45;;;;;;;;;;;22.20;6.00;;;;;;5111171;28;19909;-72
2021/04/10 11:47:10;;;;;;;;;;;22.50;5.60;;;;;;5112688;28;19930;-70
2021/04/10 11:49:36;;;;;;;;;;;22.80;4.50;;;;;;5103086;28;19908;-70
2021/04/10 11:52:08;;;;;;;;;;;22.60;1.60;;;;;;5091108;28;19932;-72
2021/04/10 11:54:34;;;;;;;;;;;22.20;1.00;;;;;;5091826;28;19916;-72
2021/04/10 11:56:59;;;;;;;;;;;21.60;1.00;;;;;;5092449;28;19916;-72
2021/04/10 11:59:31;;;;;;;;;;;21.20;1.00;;;;;;5087860;28;20394;-72
2021/04/10 12:02:00;;;;;;;;;;;20.70;1.00;;;;;;5090870;28;19916;-72
2021/04/10 12:04:27;;;;;;;;;;;20.50;1.00;;;;;;5090271;28;20071;-72
2021/04/10 12:07:02;;;;;;;;;;;20.60;1.00;;;;;;5090333;28;19916;-72
2021/04/10 12:09:28;;;;;;;;;;;20.90;1.00;;;;;;5089357;28;20003;-72
2021/04/10 12:11:53;;;;;;;;;;;21.30;1.00;;;;;;5090129;28;20407;-72
2021/04/10 12:14:19;;;;;;;;;;;21.60;1.00;;;;;;5088179;28;19908;-71
2021/04/10 12:16:44;;;;;;;;;;;22.10;1.00;;;;;;5090269;28;19914;-72
2021/04/10 12:19:11;;;;;;;;;;;22.30;1.00;;;;;;5089331;28;19912;-73
2021/04/10 12:21:36;;;;;;;;;;;22.50;1.00;;;;;;5090541;28;20293;-72
2021/04/10 12:24:02;;;;;;;;;;;22.50;1.00;;;;;;5090302;28;19912;-72
2021/04/10 12:26:28;;;;;;;;;;;22.60;1.00;;;;;;5089930;28;19912;-73
2021/04/10 12:28:53;;;;;;;;;;;22.70;1.00;;;;;;5087910;28;20384;-72
2021/04/10 12:31:21;;;;;;;;;;;22.80;1.00;;;;;;5089434;28;19976;-73
2021/04/10 12:33:47;;;;;;;;;;;22.70;1.00;;;;;;5089136;28;19908;-72
2021/04/10 12:36:12;;;;;;;;;;;22.80;1.00;;;;;;5090371;28;19941;-73
2021/04/10 12:38:38;;;;;;;;;;;22.60;1.00;;;;;;5089840;28;19964;-73
2021/04/10 12:41:04;;;;;;;;;;;22.60;1.00;;;;;;5089283;28;19931;-72
2021/04/10 12:43:30;;;;;;;;;;;22.40;1.00;;;;;;5087816;28;20375;-71
2021/04/10 12:45:55;;;;;;;;;;;22.10;1.00;;;;;;5089932;28;20010;-72
2021/04/10 12:48:21;;;;;;;;;;;21.80;1.00;;;;;;5089558;28;20032;-72
2021/04/10 12:50:46;;;;;;;;;;;21.70;1.00;;;;;;5089165;28;20050;-72
2021/04/10 12:53:12;;;;;;;;;;;21.50;1.00;;;;;;5092071;28;19919;-73
2021/04/10 12:55:37;;;;;;;;;;;21.40;1.00;;;;;;5093334;28;19984;-73
2021/04/10 12:58:03;;;;;;;;;;;21.30;1.00;;;;;;5092147;28;19912;-73
2021/04/10 13:00:28;;;;;;;;;;;21.10;1.00;;;;;;5092827;28;20258;-72
2021/04/10 13:02:54;;;;;;;;;;;21.10;1.00;;;;;;5093266;28;19908;-73
2021/04/10 13:05:19;;;;;;;;;;;21.00;1.00;;;;;;5093358;28;20284;-72
2021/04/10 13:07:45;;;;;;;;;;;21.00;1.00;;;;;;5093805;28;19912;-69
2021/04/10 13:10:11;;;;;;;;;;;20.80;1.00;;;;;;5092831;28;19908;-73
2021/04/10 13:12:37;;;;;;;;;;;20.60;1.00;;;;;;5093230;28;19928;-71
2021/04/10 13:15:03;;;;;;;;;;;20.50;1.00;;;;;;5092158;28;20065;-72
2021/04/10 13:17:29;;;;;;;;;;;20.30;1.00;;;;;;5093302;28;20050;-72
2021/04/10 13:19:54;;;;;;;;;;;20.30;1.00;;;;;;5092421;28;19954;-72
2021/04/10 13:22:20;;;;;;;;;;;20.00;1.00;;;;;;5093690;28;20002;-72
2021/04/10 13:24:46;;;;;;;;;;;19.60;1.00;;;;;;5093303;28;19912;-72
2021/04/10 13:27:11;;;;;;;;;;;19.20;1.00;;;;;;5093499;28;19908;-71
2021/04/10 13:29:37;;;;;;;;;;;18.90;1.00;;;;;;5091242;28;20411;-72
2021/04/10 13:32:03;;;;;;;;;;;18.60;1.00;;;;;;5074424;28;19913;-72
2021/04/10 13:34:28;;;;;;;;;;;18.40;1.00;;;;;;5092788;28;20375;-72
2021/04/10 13:36:54;;;;;;;;;;;18.40;1.00;;;;;;5093136;28;19985;-71
2021/04/10 13:39:19;;;;;;;;;;;18.30;1.00;;;;;;5091383;28;19908;-72
2021/04/10 13:41:45;;;;;;;;;;;18.30;1.00;;;;;;5093894;28;20291;-72
2021/04/10 13:44:13;;;;;;;;;;;18.10;1.00;;;;;;5090869;28;19912;-72
2021/04/10 13:46:39;;;;;;;;;;;18.00;1.00;;;;;;5093100;28;19912;-72
2021/04/10 13:49:05;;;;;;;;;;;17.90;1.00;;;;;;5091442;28;19923;-70
2021/04/10 13:51:31;;;;;;;;;;;17.90;1.00;;;;;;5092316;28;19931;-71
2021/04/10 13:53:56;;;;;;;;;;;17.90;1.00;;;;;;5092116;28;19916;-72
2021/04/10 13:56:22;;;;;;;;;;;17.70;1.00;;;;;;5100839;22;19982;-71
2021/04/10 13:58:47;;;;;;;;;;;17.70;1.00;;;;;;5070938;28;20357;-70
2021/04/10 14:01:13;;;;;;;;;;;17.70;1.00;;;;;;5071485;28;19912;-71
2021/04/10 14:03:39;;;;;;;;;;;17.70;1.00;;;;;;5070660;28;19909;-69
2021/04/10 14:06:09;;;;;;;;;;;17.70;1.00;;;;;;5067120;28;19916;-70
2021/04/10 14:08:34;;;;;;;;;;;17.80;1.00;;;;;;5092481;28;19922;-70
2021/04/10 14:11:00;;;;;;;;;;;17.90;1.00;;;;;;5091841;28;19908;-70
2021/04/10 14:13:25;;;;;;;;;;;18.00;1.00;;;;;;5091128;28;19938;-70
2021/04/10 14:15:51;;;;;;;;;;;17.90;1.00;;;;;;5092529;28;19912;-70
2021/04/10 14:18:17;;;;;;;;;;;17.80;1.00;;;;;;5092264;28;19950;-71
2021/04/10 14:20:43;;;;;;;;;;;17.60;1.00;;;;;;5091697;28;19908;-71
2021/04/10 14:23:10;;;;;;;;;;;17.70;1.00;;;;;;5091903;28;20337;-71
2021/04/10 14:25:36;;;;;;;;;;;17.80;1.00;;;;;;5092024;28;19912;-69
2021/04/10 14:28:02;;;;;;;;;;;17.90;1.00;;;;;;5091069;28;19919;-70